Boca Raton, FL

7:04 AM EST on February 07, 2016 (GMT -0500)
Boca (C6162) | | Change Station
CLOSE
Current Station
Personal Weather Station
Location: Boca Raton, FL
Elevation: 12 ft
Nearby Weather Stations

Elev 12 ft 26.34 °N, 80.21 °W | Updated 3 seconds ago

Partly Cloudy
Partly Cloudy
50.6 °F
Feels Like 50.6 °F
N
14.0
Wind Variable Wind from NW
Gusts 17.0 mph

Today
High -- | Low -- °F
--% Chance of Precip.
Yesterday
High -- | Low -- °F
Precip. -- in
Pressure 29.96 in
Visibility 10.0 miles
Clouds Overcast 10000 ft
Dew Point 47 °F
Humidity 86%
Rainfall 0.14 in
Snow Depth Not available.
7:02 AM 6:07 PM
Waning Crescent, 2% visible
METAR KPMP 071153Z 30016KT 10SM OVC100 11/08 A2996 RMK AO2 PK WND 30029/1125 SLP146 60008 70035 T01110078 10150 20111 53008
Pressure 29.96 in
Visibility 10.0 miles
Clouds Overcast 10000 ft
Dew Point 47 °F
Humidity 86%
Rainfall 0.14 in
Snow Depth Not available.
7:02 AM 6:07 PM
Waning Crescent, 2% visible
METAR KPMP 071153Z 30016KT 10SM OVC100 11/08 A2996 RMK AO2 PK WND 30029/1125 SLP146 60008 70035 T01110078 10150 20111 53008

10-Day Weather Forecast

Almanac

Astronomy

Feb. 07, 2016 Rise Set
Actual Time
Civil Twilight
Nautical Twilight
Astronomical Twilight
Moon
Length of Visible Light
Length of Day
Tomorrow will be .
, % of the Moon is Illuminated

Today's Extremes

State Highs State Lows

Community

WunderPhotos

Upload Photos

1,891,182 photos uploaded!

WunderBlog® & News

Nearby

Air Quality

  Air Quality AQ Index Pollutant
Not available.

Snow Depth

Station Depth Elevation

Earthquake Activity

City Distance Mag. Time & Date
Minimum magnitude displayed is 2.5.

Coastal Water Temperatures

Place Temperature

Stations

Nearby Weather Stations

Station Location Temp. Windchill Dew Point Humidity Wind Precip. Elev Updated Type
                   

Watches & Warnings

There are currently no watches in effect.